sensor_id;sensor_type;location;lat;lon;timestamp;temperature;humidity
13798;DHT22;6970;51.340;3.240;2023-08-17T00:02:09;19.70;99.90
13798;DHT22;6970;51.340;3.240;2023-08-17T00:04:38;19.70;99.90
13798;DHT22;6970;51.340;3.240;2023-08-17T00:07:09;19.70;99.90
13798;DHT22;6970;51.340;3.240;2023-08-17T00:09:40;19.70;99.90
13798;DHT22;6970;51.340;3.240;2023-08-17T00:12:10;19.60;99.90
13798;DHT22;6970;51.340;3.240;2023-08-17T00:14:38;19.60;99.90
13798;DHT22;6970;51.340;3.240;2023-08-17T00:17:05;19.60;99.90
13798;DHT22;6970;51.340;3.240;2023-08-17T00:19:32;19.60;99.90
13798;DHT22;6970;51.340;3.240;2023-08-17T00:22:00;19.60;99.90
13798;DHT22;6970;51.340;3.240;2023-08-17T00:24:28;19.60;99.90
13798;DHT22;6970;51.340;3.240;2023-08-17T00:26:56;19.60;99.90
13798;DHT22;6970;51.340;3.240;2023-08-17T00:29:24;19.60;99.90
13798;DHT22;6970;51.340;3.240;2023-08-17T00:31:51;19.60;99.90
13798;DHT22;6970;51.340;3.240;2023-08-17T00:34:20;19.50;99.90
13798;DHT22;6970;51.340;3.240;2023-08-17T00:36:50;19.50;99.90
13798;DHT22;6970;51.340;3.240;2023-08-17T00:39:18;19.50;99.90
13798;DHT22;6970;51.340;3.240;2023-08-17T00:41:47;19.50;99.90
13798;DHT22;6970;51.340;3.240;2023-08-17T00:44:14;19.40;99.90
13798;DHT22;6970;51.340;3.240;2023-08-17T00:46:45;19.40;99.90
13798;DHT22;6970;51.340;3.240;2023-08-17T00:49:12;19.40;99.90
13798;DHT22;6970;51.340;3.240;2023-08-17T00:51:41;19.40;99.90
13798;DHT22;6970;51.340;3.240;2023-08-17T00:54:09;19.40;99.90
13798;DHT22;6970;51.340;3.240;2023-08-17T00:56:37;19.40;99.90
13798;DHT22;6970;51.340;3.240;2023-08-17T00:59:05;19.40;99.90
13798;DHT22;6970;51.340;3.240;2023-08-17T01:01:32;19.40;99.90
13798;DHT22;6970;51.340;3.240;2023-08-17T01:03:59;19.40;99.90
13798;DHT22;6970;51.340;3.240;2023-08-17T01:06:27;19.30;99.90
13798;DHT22;6970;51.340;3.240;2023-08-17T01:08:54;19.30;99.90
13798;DHT22;6970;51.340;3.240;2023-08-17T01:11:28;19.30;99.90
13798;DHT22;6970;51.340;3.240;2023-08-17T01:14:16;19.30;99.90
13798;DHT22;6970;51.340;3.240;2023-08-17T01:17:12;19.20;99.90
13798;DHT22;6970;51.340;3.240;2023-08-17T01:19:42;19.20;99.90
13798;DHT22;6970;51.340;3.240;2023-08-17T01:22:14;19.20;99.90
13798;DHT22;6970;51.340;3.240;2023-08-17T01:24:44;19.20;99.90
13798;DHT22;6970;51.340;3.240;2023-08-17T01:27:14;19.10;99.90
13798;DHT22;6970;51.340;3.240;2023-08-17T01:29:41;19.10;99.90
13798;DHT22;6970;51.340;3.240;2023-08-17T01:32:30;19.10;99.90
13798;DHT22;6970;51.340;3.240;2023-08-17T01:35:04;19.10;99.90
13798;DHT22;6970;51.340;3.240;2023-08-17T01:37:37;19.00;99.90
13798;DHT22;6970;51.340;3.240;2023-08-17T01:40:09;19.00;99.90
13798;DHT22;6970;51.340;3.240;2023-08-17T01:42:39;19.00;99.90
13798;DHT22;6970;51.340;3.240;2023-08-17T01:45:13;19.00;99.90
13798;DHT22;6970;51.340;3.240;2023-08-17T01:47:41;19.00;99.90
13798;DHT22;6970;51.340;3.240;2023-08-17T01:50:15;19.00;99.90
13798;DHT22;6970;51.340;3.240;2023-08-17T01:52:45;19.00;99.90
13798;DHT22;6970;51.340;3.240;2023-08-17T01:55:12;18.90;99.90
13798;DHT22;6970;51.340;3.240;2023-08-17T01:57:42;18.90;99.90
13798;DHT22;6970;51.340;3.240;2023-08-17T02:00:11;18.90;99.90
13798;DHT22;6970;51.340;3.240;2023-08-17T02:02:41;18.90;99.90
13798;DHT22;6970;51.340;3.240;2023-08-17T02:05:09;18.90;99.90
13798;DHT22;6970;51.340;3.240;2023-08-17T02:07:39;18.80;99.90
13798;DHT22;6970;51.340;3.240;2023-08-17T02:10:09;18.80;99.90
13798;DHT22;6970;51.340;3.240;2023-08-17T02:12:38;18.80;99.90
13798;DHT22;6970;51.340;3.240;2023-08-17T02:15:09;18.80;99.90
13798;DHT22;6970;51.340;3.240;2023-08-17T02:17:38;18.80;99.90
13798;DHT22;6970;51.340;3.240;2023-08-17T02:20:11;18.80;99.90
13798;DHT22;6970;51.340;3.240;2023-08-17T02:22:39;18.80;99.90
13798;DHT22;6970;51.340;3.240;2023-08-17T02:25:09;18.80;99.90
13798;DHT22;6970;51.340;3.240;2023-08-17T02:27:39;18.80;99.90
13798;DHT22;6970;51.340;3.240;2023-08-17T02:30:08;18.80;99.90
13798;DHT22;6970;51.340;3.240;2023-08-17T02:32:35;18.80;99.90
13798;DHT22;6970;51.340;3.240;2023-08-17T02:35:06;18.80;99.90
13798;DHT22;6970;51.340;3.240;2023-08-17T02:37:33;18.80;99.90
13798;DHT22;6970;51.340;3.240;2023-08-17T02:40:03;18.80;99.90
13798;DHT22;6970;51.340;3.240;2023-08-17T02:42:37;18.80;99.90
13798;DHT22;6970;51.340;3.240;2023-08-17T02:45:08;18.80;99.90
13798;DHT22;6970;51.340;3.240;2023-08-17T02:47:35;18.80;99.90
13798;DHT22;6970;51.340;3.240;2023-08-17T02:50:03;18.80;99.90
13798;DHT22;6970;51.340;3.240;2023-08-17T02:52:32;18.70;99.90
13798;DHT22;6970;51.340;3.240;2023-08-17T02:55:02;18.70;99.90
13798;DHT22;6970;51.340;3.240;2023-08-17T02:57:32;18.70;99.90
13798;DHT22;6970;51.340;3.240;2023-08-17T02:59:59;18.70;99.90
13798;DHT22;6970;51.340;3.240;2023-08-17T03:02:27;18.70;99.90
13798;DHT22;6970;51.340;3.240;2023-08-17T03:04:56;18.70;99.90
13798;DHT22;6970;51.340;3.240;2023-08-17T03:07:27;18.60;99.90
13798;DHT22;6970;51.340;3.240;2023-08-17T03:09:55;18.60;99.90
13798;DHT22;6970;51.340;3.240;2023-08-17T03:12:24;18.60;99.90
13798;DHT22;6970;51.340;3.240;2023-08-17T03:14:53;18.60;99.90
13798;DHT22;6970;51.340;3.240;2023-08-17T03:17:20;18.60;99.90
13798;DHT22;6970;51.340;3.240;2023-08-17T03:19:50;18.60;99.90
13798;DHT22;6970;51.340;3.240;2023-08-17T03:22:21;18.60;99.90
13798;DHT22;6970;51.340;3.240;2023-08-17T03:24:51;18.60;99.90
13798;DHT22;6970;51.340;3.240;2023-08-17T03:27:21;18.50;99.90
13798;DHT22;6970;51.340;3.240;2023-08-17T03:29:50;18.50;99.90
13798;DHT22;6970;51.340;3.240;2023-08-17T03:32:21;18.50;99.90
13798;DHT22;6970;51.340;3.240;2023-08-17T03:34:51;18.60;99.90
13798;DHT22;6970;51.340;3.240;2023-08-17T03:37:21;18.60;99.90
13798;DHT22;6970;51.340;3.240;2023-08-17T03:39:49;18.50;99.90
13798;DHT22;6970;51.340;3.240;2023-08-17T03:42:19;18.50;99.90
13798;DHT22;6970;51.340;3.240;2023-08-17T03:44:48;18.50;99.90
13798;DHT22;6970;51.340;3.240;2023-08-17T03:47:15;18.50;99.90
13798;DHT22;6970;51.340;3.240;2023-08-17T03:49:42;18.50;99.90
13798;DHT22;6970;51.340;3.240;2023-08-17T03:52:11;18.50;99.90
13798;DHT22;6970;51.340;3.240;2023-08-17T03:54:38;18.50;99.90
13798;DHT22;6970;51.340;3.240;2023-08-17T03:57:05;18.50;99.90
13798;DHT22;6970;51.340;3.240;2023-08-17T03:59:36;18.50;99.90
13798;DHT22;6970;51.340;3.240;2023-08-17T04:02:08;18.50;99.90
13798;DHT22;6970;51.340;3.240;2023-08-17T04:04:39;18.50;99.90
13798;DHT22;6970;51.340;3.240;2023-08-17T04:07:09;18.50;99.90
13798;DHT22;6970;51.340;3.240;2023-08-17T04:09:36;18.50;99.90
13798;DHT22;6970;51.340;3.240;2023-08-17T04:12:03;18.50;99.90
13798;DHT22;6970;51.340;3.240;2023-08-17T04:14:35;18.40;99.90
13798;DHT22;6970;51.340;3.240;2023-08-17T04:17:03;18.50;99.90
13798;DHT22;6970;51.340;3.240;2023-08-17T04:19:33;18.40;99.90
13798;DHT22;6970;51.340;3.240;2023-08-17T04:22:00;18.40;99.90
13798;DHT22;6970;51.340;3.240;2023-08-17T04:24:29;18.40;99.90
13798;DHT22;6970;51.340;3.240;2023-08-17T04:26:58;18.40;99.90
13798;DHT22;6970;51.340;3.240;2023-08-17T04:29:27;18.40;99.90
13798;DHT22;6970;51.340;3.240;2023-08-17T04:31:54;18.30;99.90
13798;DHT22;6970;51.340;3.240;2023-08-17T04:34:22;18.30;99.90
13798;DHT22;6970;51.340;3.240;2023-08-17T04:36:55;18.30;99.90
13798;DHT22;6970;51.340;3.240;2023-08-17T04:39:23;18.30;99.90
13798;DHT22;6970;51.340;3.240;2023-08-17T04:41:51;18.30;99.90
13798;DHT22;6970;51.340;3.240;2023-08-17T04:44:18;18.30;99.90
13798;DHT22;6970;51.340;3.240;2023-08-17T04:46:45;18.30;99.90
13798;DHT22;6970;51.340;3.240;2023-08-17T04:49:14;18.30;99.90
13798;DHT22;6970;51.340;3.240;2023-08-17T04:51:43;18.30;99.90
13798;DHT22;6970;51.340;3.240;2023-08-17T04:54:13;18.30;99.90
13798;DHT22;6970;51.340;3.240;2023-08-17T04:56:40;18.30;99.90
13798;DHT22;6970;51.340;3.240;2023-08-17T04:59:07;18.30;99.90
13798;DHT22;6970;51.340;3.240;2023-08-17T05:01:37;18.30;99.90
13798;DHT22;6970;51.340;3.240;2023-08-17T05:04:11;18.30;99.90
13798;DHT22;6970;51.340;3.240;2023-08-17T05:06:41;18.30;99.90
13798;DHT22;6970;51.340;3.240;2023-08-17T05:09:09;18.30;99.90
13798;DHT22;6970;51.340;3.240;2023-08-17T05:11:39;18.30;99.90
13798;DHT22;6970;51.340;3.240;2023-08-17T05:14:08;18.30;99.90
13798;DHT22;6970;51.340;3.240;2023-08-17T05:16:36;18.40;99.90
13798;DHT22;6970;51.340;3.240;2023-08-17T05:19:04;18.40;99.90
13798;DHT22;6970;51.340;3.240;2023-08-17T05:21:34;18.40;99.90
13798;DHT22;6970;51.340;3.240;2023-08-17T05:24:03;18.40;99.90
13798;DHT22;6970;51.340;3.240;2023-08-17T05:26:31;18.40;99.90
13798;DHT22;6970;51.340;3.240;2023-08-17T05:29:00;18.40;99.90
13798;DHT22;6970;51.340;3.240;2023-08-17T05:31:28;18.50;99.90
13798;DHT22;6970;51.340;3.240;2023-08-17T05:33:56;18.50;99.90
13798;DHT22;6970;51.340;3.240;2023-08-17T05:36:27;18.50;99.90
13798;DHT22;6970;51.340;3.240;2023-08-17T05:38:55;18.50;99.90
13798;DHT22;6970;51.340;3.240;2023-08-17T05:41:22;18.60;99.90
13798;DHT22;6970;51.340;3.240;2023-08-17T05:43:52;18.60;99.90
13798;DHT22;6970;51.340;3.240;2023-08-17T05:46:22;18.70;99.90
13798;DHT22;6970;51.340;3.240;2023-08-17T05:48:51;18.80;99.90
13798;DHT22;6970;51.340;3.240;2023-08-17T05:51:21;18.80;99.90
13798;DHT22;6970;51.340;3.240;2023-08-17T05:53:52;18.80;99.90
13798;DHT22;6970;51.340;3.240;2023-08-17T05:56:22;18.80;99.90
13798;DHT22;6970;51.340;3.240;2023-08-17T05:58:49;18.90;99.90
13798;DHT22;6970;51.340;3.240;2023-08-17T06:01:20;18.90;99.90
13798;DHT22;6970;51.340;3.240;2023-08-17T06:03:50;18.90;99.90
13798;DHT22;6970;51.340;3.240;2023-08-17T06:06:19;18.80;99.90
13798;DHT22;6970;51.340;3.240;2023-08-17T06:08:50;18.90;99.90
13798;DHT22;6970;51.340;3.240;2023-08-17T06:11:20;18.90;99.90
13798;DHT22;6970;51.340;3.240;2023-08-17T06:13:50;18.90;99.90
13798;DHT22;6970;51.340;3.240;2023-08-17T06:16:17;19.00;99.90
13798;DHT22;6970;51.340;3.240;2023-08-17T06:18:47;19.00;99.90
13798;DHT22;6970;51.340;3.240;2023-08-17T06:21:18;19.10;99.90
13798;DHT22;6970;51.340;3.240;2023-08-17T06:23:48;19.10;99.90
13798;DHT22;6970;51.340;3.240;2023-08-17T06:26:18;19.10;99.90
13798;DHT22;6970;51.340;3.240;2023-08-17T06:28:47;19.20;99.90
13798;DHT22;6970;51.340;3.240;2023-08-17T06:31:17;19.20;99.90
13798;DHT22;6970;51.340;3.240;2023-08-17T06:33:46;19.20;99.90
13798;DHT22;6970;51.340;3.240;2023-08-17T06:36:16;19.30;99.90
13798;DHT22;6970;51.340;3.240;2023-08-17T06:38:45;19.20;99.90
13798;DHT22;6970;51.340;3.240;2023-08-17T06:41:12;19.30;99.90
13798;DHT22;6970;51.340;3.240;2023-08-17T06:43:39;19.30;99.90
13798;DHT22;6970;51.340;3.240;2023-08-17T06:46:09;19.40;99.90
13798;DHT22;6970;51.340;3.240;2023-08-17T06:48:36;19.40;99.90
13798;DHT22;6970;51.340;3.240;2023-08-17T06:51:04;19.50;99.90
13798;DHT22;6970;51.340;3.240;2023-08-17T06:53:33;19.60;99.90
13798;DHT22;6970;51.340;3.240;2023-08-17T06:56:01;19.80;99.90
13798;DHT22;6970;51.340;3.240;2023-08-17T06:58:30;19.90;99.90
13798;DHT22;6970;51.340;3.240;2023-08-17T07:00:57;20.10;99.90
13798;DHT22;6970;51.340;3.240;2023-08-17T07:03:25;20.20;99.90
13798;DHT22;6970;51.340;3.240;2023-08-17T07:05:54;20.30;99.90
13798;DHT22;6970;51.340;3.240;2023-08-17T07:08:23;20.50;99.90
13798;DHT22;6970;51.340;3.240;2023-08-17T07:10:52;20.70;99.90
13798;DHT22;6970;51.340;3.240;2023-08-17T07:13:25;20.90;99.90
13798;DHT22;6970;51.340;3.240;2023-08-17T07:15:53;21.00;99.90
13798;DHT22;6970;51.340;3.240;2023-08-17T07:18:20;21.20;99.90
13798;DHT22;6970;51.340;3.240;2023-08-17T07:20:49;21.30;99.90
13798;DHT22;6970;51.340;3.240;2023-08-17T07:23:18;21.50;99.90
13798;DHT22;6970;51.340;3.240;2023-08-17T07:25:48;21.60;99.90
13798;DHT22;6970;51.340;3.240;2023-08-17T07:28:16;21.80;99.90
13798;DHT22;6970;51.340;3.240;2023-08-17T07:30:43;22.00;99.90
13798;DHT22;6970;51.340;3.240;2023-08-17T07:33:12;22.10;99.90
13798;DHT22;6970;51.340;3.240;2023-08-17T07:35:39;22.20;99.90
13798;DHT22;6970;51.340;3.240;2023-08-17T07:38:06;22.20;99.90
13798;DHT22;6970;51.340;3.240;2023-08-17T07:40:38;22.40;99.90
13798;DHT22;6970;51.340;3.240;2023-08-17T07:43:08;22.50;99.90
13798;DHT22;6970;51.340;3.240;2023-08-17T07:45:35;22.70;99.90
13798;DHT22;6970;51.340;3.240;2023-08-17T07:48:05;22.90;99.90
13798;DHT22;6970;51.340;3.240;2023-08-17T07:50:34;23.00;99.90
13798;DHT22;6970;51.340;3.240;2023-08-17T07:53:03;23.20;99.90
13798;DHT22;6970;51.340;3.240;2023-08-17T07:55:33;23.40;99.90
13798;DHT22;6970;51.340;3.240;2023-08-17T07:58:03;23.50;99.90
13798;DHT22;6970;51.340;3.240;2023-08-17T08:00:34;23.70;99.90
13798;DHT22;6970;51.340;3.240;2023-08-17T08:03:04;23.90;99.90
13798;DHT22;6970;51.340;3.240;2023-08-17T08:05:34;24.10;99.90
13798;DHT22;6970;51.340;3.240;2023-08-17T08:08:03;24.20;99.90
13798;DHT22;6970;51.340;3.240;2023-08-17T08:10:32;24.30;99.90
13798;DHT22;6970;51.340;3.240;2023-08-17T08:13:02;24.50;99.90
13798;DHT22;6970;51.340;3.240;2023-08-17T08:15:33;24.60;99.90
13798;DHT22;6970;51.340;3.240;2023-08-17T08:18:01;24.70;99.90
13798;DHT22;6970;51.340;3.240;2023-08-17T08:20:34;24.80;99.90
13798;DHT22;6970;51.340;3.240;2023-08-17T08:23:04;24.90;99.90
13798;DHT22;6970;51.340;3.240;2023-08-17T08:25:32;25.00;99.90
13798;DHT22;6970;51.340;3.240;2023-08-17T08:27:59;25.00;99.90
13798;DHT22;6970;51.340;3.240;2023-08-17T08:30:26;25.10;99.90
13798;DHT22;6970;51.340;3.240;2023-08-17T08:32:56;25.20;99.90
13798;DHT22;6970;51.340;3.240;2023-08-17T08:35:28;25.30;99.90
13798;DHT22;6970;51.340;3.240;2023-08-17T08:37:58;25.40;99.90
13798;DHT22;6970;51.340;3.240;2023-08-17T08:40:29;25.50;99.70
13798;DHT22;6970;51.340;3.240;2023-08-17T08:42:57;25.70;99.60
13798;DHT22;6970;51.340;3.240;2023-08-17T08:45:29;25.80;99.50
13798;DHT22;6970;51.340;3.240;2023-08-17T08:48:00;26.00;99.30
13798;DHT22;6970;51.340;3.240;2023-08-17T08:50:31;26.20;99.40
13798;DHT22;6970;51.340;3.240;2023-08-17T08:53:02;26.40;98.80
13798;DHT22;6970;51.340;3.240;2023-08-17T08:55:37;26.60;98.70
13798;DHT22;6970;51.340;3.240;2023-08-17T08:58:11;26.80;98.40
13798;DHT22;6970;51.340;3.240;2023-08-17T09:00:41;26.90;98.30
13798;DHT22;6970;51.340;3.240;2023-08-17T09:03:09;27.10;97.70
13798;DHT22;6970;51.340;3.240;2023-08-17T09:05:39;27.10;97.50
13798;DHT22;6970;51.340;3.240;2023-08-17T09:08:08;27.00;97.30
13798;DHT22;6970;51.340;3.240;2023-08-17T09:10:45;26.70;97.50
13798;DHT22;6970;51.340;3.240;2023-08-17T09:13:13;26.30;98.00
13798;DHT22;6970;51.340;3.240;2023-08-17T09:15:41;26.00;98.30
13798;DHT22;6970;51.340;3.240;2023-08-17T09:18:11;25.80;98.70
13798;DHT22;6970;51.340;3.240;2023-08-17T09:20:45;25.70;99.20
13798;DHT22;6970;51.340;3.240;2023-08-17T09:23:18;25.60;99.20
13798;DHT22;6970;51.340;3.240;2023-08-17T09:25:51;25.40;99.20
13798;DHT22;6970;51.340;3.240;2023-08-17T09:28:22;25.30;99.40
13798;DHT22;6970;51.340;3.240;2023-08-17T09:31:02;25.30;99.60
13798;DHT22;6970;51.340;3.240;2023-08-17T09:33:33;25.50;99.50
13798;DHT22;6970;51.340;3.240;2023-08-17T09:36:03;25.70;99.50
13798;DHT22;6970;51.340;3.240;2023-08-17T09:38:30;25.80;99.50
13798;DHT22;6970;51.340;3.240;2023-08-17T09:40:58;25.90;99.60
13798;DHT22;6970;51.340;3.240;2023-08-17T09:43:25;26.10;99.30
13798;DHT22;6970;51.340;3.240;2023-08-17T09:45:59;26.20;99.30
13798;DHT22;6970;51.340;3.240;2023-08-17T09:48:26;26.10;99.20
13798;DHT22;6970;51.340;3.240;2023-08-17T09:50:59;26.10;99.40
13798;DHT22;6970;51.340;3.240;2023-08-17T09:53:34;26.40;99.60
13798;DHT22;6970;51.340;3.240;2023-08-17T09:56:05;26.80;99.20
13798;DHT22;6970;51.340;3.240;2023-08-17T09:58:38;27.20;98.40
13798;DHT22;6970;51.340;3.240;2023-08-17T10:01:05;27.40;98.30
13798;DHT22;6970;51.340;3.240;2023-08-17T10:03:35;27.60;98.10
13798;DHT22;6970;51.340;3.240;2023-08-17T10:06:10;27.70;97.70
13798;DHT22;6970;51.340;3.240;2023-08-17T10:08:50;27.80;97.50
13798;DHT22;6970;51.340;3.240;2023-08-17T10:11:22;28.00;97.30
13798;DHT22;6970;51.340;3.240;2023-08-17T10:14:07;28.10;97.10
13798;DHT22;6970;51.340;3.240;2023-08-17T10:16:51;28.20;96.90
13798;DHT22;6970;51.340;3.240;2023-08-17T10:22:12;28.70;97.00
13798;DHT22;6970;51.340;3.240;2023-08-17T10:24:46;28.80;96.30
13798;DHT22;6970;51.340;3.240;2023-08-17T10:27:16;28.90;96.10
13798;DHT22;6970;51.340;3.240;2023-08-17T10:29:48;28.80;96.60
13798;DHT22;6970;51.340;3.240;2023-08-17T10:32:17;28.90;97.10
13798;DHT22;6970;51.340;3.240;2023-08-17T10:34:45;28.90;97.30
13798;DHT22;6970;51.340;3.240;2023-08-17T10:37:12;29.00;97.40
13798;DHT22;6970;51.340;3.240;2023-08-17T10:39:45;28.90;97.50
13798;DHT22;6970;51.340;3.240;2023-08-17T10:42:13;28.90;97.70
13798;DHT22;6970;51.340;3.240;2023-08-17T10:44:49;28.80;97.60
13798;DHT22;6970;51.340;3.240;2023-08-17T10:47:26;28.80;97.80
13798;DHT22;6970;51.340;3.240;2023-08-17T10:49:58;28.90;97.70
13798;DHT22;6970;51.340;3.240;2023-08-17T10:52:34;29.00;97.60
13798;DHT22;6970;51.340;3.240;2023-08-17T10:55:08;29.10;97.50
13798;DHT22;6970;51.340;3.240;2023-08-17T10:57:43;29.10;97.50
13798;DHT22;6970;51.340;3.240;2023-08-17T11:00:24;29.20;97.40
13798;DHT22;6970;51.340;3.240;2023-08-17T11:03:02;29.20;97.30
13798;DHT22;6970;51.340;3.240;2023-08-17T11:05:53;29.20;97.50
13798;DHT22;6970;51.340;3.240;2023-08-17T11:11:10;29.40;97.20
13798;DHT22;6970;51.340;3.240;2023-08-17T11:16:11;29.60;97.10
13798;DHT22;6970;51.340;3.240;2023-08-17T11:18:43;29.60;97.20
13798;DHT22;6970;51.340;3.240;2023-08-17T11:21:14;29.50;96.90
13798;DHT22;6970;51.340;3.240;2023-08-17T11:23:48;29.50;96.90
13798;DHT22;6970;51.340;3.240;2023-08-17T11:26:21;29.60;97.10
13798;DHT22;6970;51.340;3.240;2023-08-17T11:28:50;29.60;96.80
13798;DHT22;6970;51.340;3.240;2023-08-17T11:31:21;29.60;96.90
13798;DHT22;6970;51.340;3.240;2023-08-17T11:33:51;29.50;97.00
13798;DHT22;6970;51.340;3.240;2023-08-17T11:36:22;29.40;97.10
13798;DHT22;6970;51.340;3.240;2023-08-17T11:38:49;29.30;97.00
13798;DHT22;6970;51.340;3.240;2023-08-17T11:41:17;29.20;96.90
13798;DHT22;6970;51.340;3.240;2023-08-17T11:43:47;29.10;97.10
13798;DHT22;6970;51.340;3.240;2023-08-17T11:46:15;29.00;97.40
13798;DHT22;6970;51.340;3.240;2023-08-17T11:48:43;28.90;97.30
13798;DHT22;6970;51.340;3.240;2023-08-17T11:51:10;29.00;97.60
13798;DHT22;6970;51.340;3.240;2023-08-17T11:53:42;29.10;97.90
13798;DHT22;6970;51.340;3.240;2023-08-17T11:56:16;29.20;97.30
13798;DHT22;6970;51.340;3.240;2023-08-17T11:58:46;29.20;97.20
13798;DHT22;6970;51.340;3.240;2023-08-17T12:01:15;29.30;97.00
13798;DHT22;6970;51.340;3.240;2023-08-17T12:03:48;29.40;97.00
13798;DHT22;6970;51.340;3.240;2023-08-17T12:06:16;29.50;96.90
13798;DHT22;6970;51.340;3.240;2023-08-17T12:08:49;29.60;96.70
13798;DHT22;6970;51.340;3.240;2023-08-17T12:11:19;29.60;96.90
13798;DHT22;6970;51.340;3.240;2023-08-17T12:13:53;29.50;96.70
13798;DHT22;6970;51.340;3.240;2023-08-17T12:16:22;29.40;96.50
13798;DHT22;6970;51.340;3.240;2023-08-17T12:18:53;29.40;96.70
13798;DHT22;6970;51.340;3.240;2023-08-17T12:21:24;29.20;97.00
13798;DHT22;6970;51.340;3.240;2023-08-17T12:23:56;29.20;97.10
13798;DHT22;6970;51.340;3.240;2023-08-17T12:26:26;29.00;97.40
13798;DHT22;6970;51.340;3.240;2023-08-17T12:28:59;28.80;97.60
13798;DHT22;6970;51.340;3.240;2023-08-17T12:31:29;28.70;97.80
13798;DHT22;6970;51.340;3.240;2023-08-17T12:33:59;28.60;97.80
13798;DHT22;6970;51.340;3.240;2023-08-17T12:36:27;28.50;98.00
13798;DHT22;6970;51.340;3.240;2023-08-17T12:38:55;28.40;98.00
13798;DHT22;6970;51.340;3.240;2023-08-17T12:41:23;28.50;98.20
13798;DHT22;6970;51.340;3.240;2023-08-17T12:43:56;28.60;97.90
13798;DHT22;6970;51.340;3.240;2023-08-17T12:46:27;28.70;98.00
13798;DHT22;6970;51.340;3.240;2023-08-17T12:48:59;28.60;98.00
13798;DHT22;6970;51.340;3.240;2023-08-17T12:51:29;28.50;98.00
13798;DHT22;6970;51.340;3.240;2023-08-17T12:53:57;28.40;98.10
13798;DHT22;6970;51.340;3.240;2023-08-17T12:56:24;28.30;98.10
13798;DHT22;6970;51.340;3.240;2023-08-17T12:58:52;28.20;98.40
13798;DHT22;6970;51.340;3.240;2023-08-17T13:01:20;28.00;98.50
13798;DHT22;6970;51.340;3.240;2023-08-17T13:03:48;27.60;98.80
13798;DHT22;6970;51.340;3.240;2023-08-17T13:06:17;27.20;99.30
13798;DHT22;6970;51.340;3.240;2023-08-17T13:08:50;26.90;99.90
13798;DHT22;6970;51.340;3.240;2023-08-17T13:11:21;26.60;99.90
13798;DHT22;6970;51.340;3.240;2023-08-17T13:13:51;26.40;99.90
13798;DHT22;6970;51.340;3.240;2023-08-17T13:16:21;26.10;99.90
13798;DHT22;6970;51.340;3.240;2023-08-17T13:18:51;26.00;99.90
13798;DHT22;6970;51.340;3.240;2023-08-17T13:21:19;25.80;99.90
13798;DHT22;6970;51.340;3.240;2023-08-17T13:23:50;25.60;99.90
13798;DHT22;6970;51.340;3.240;2023-08-17T13:26:18;25.50;99.90
13798;DHT22;6970;51.340;3.240;2023-08-17T13:29:01;25.50;99.90
13798;DHT22;6970;51.340;3.240;2023-08-17T13:31:31;25.40;99.90
13798;DHT22;6970;51.340;3.240;2023-08-17T13:33:59;25.20;99.90
13798;DHT22;6970;51.340;3.240;2023-08-17T13:36:29;25.20;99.90
13798;DHT22;6970;51.340;3.240;2023-08-17T13:39:00;25.10;99.90
13798;DHT22;6970;51.340;3.240;2023-08-17T13:41:29;25.00;99.90
13798;DHT22;6970;51.340;3.240;2023-08-17T13:43:59;25.00;99.90
13798;DHT22;6970;51.340;3.240;2023-08-17T13:46:28;24.90;99.90
13798;DHT22;6970;51.340;3.240;2023-08-17T13:48:56;24.80;99.90
13798;DHT22;6970;51.340;3.240;2023-08-17T13:51:24;24.80;99.90
13798;DHT22;6970;51.340;3.240;2023-08-17T13:53:52;24.70;99.90
13798;DHT22;6970;51.340;3.240;2023-08-17T13:56:20;24.60;99.90
13798;DHT22;6970;51.340;3.240;2023-08-17T13:58:47;24.60;99.90
13798;DHT22;6970;51.340;3.240;2023-08-17T14:01:18;24.50;99.90
13798;DHT22;6970;51.340;3.240;2023-08-17T14:03:45;24.50;99.90
13798;DHT22;6970;51.340;3.240;2023-08-17T14:06:13;24.50;99.90
13798;DHT22;6970;51.340;3.240;2023-08-17T14:08:46;24.40;99.90
13798;DHT22;6970;51.340;3.240;2023-08-17T14:11:13;24.40;99.90
13798;DHT22;6970;51.340;3.240;2023-08-17T14:13:40;24.30;99.90
13798;DHT22;6970;51.340;3.240;2023-08-17T14:16:08;24.20;99.90
13798;DHT22;6970;51.340;3.240;2023-08-17T14:18:41;24.20;99.90
13798;DHT22;6970;51.340;3.240;2023-08-17T14:21:11;24.10;99.90
13798;DHT22;6970;51.340;3.240;2023-08-17T14:23:40;24.10;99.90
13798;DHT22;6970;51.340;3.240;2023-08-17T14:26:14;24.10;99.90
13798;DHT22;6970;51.340;3.240;2023-08-17T14:28:45;24.00;99.90
13798;DHT22;6970;51.340;3.240;2023-08-17T14:31:13;24.00;99.90
13798;DHT22;6970;51.340;3.240;2023-08-17T14:33:44;24.00;99.90
13798;DHT22;6970;51.340;3.240;2023-08-17T14:36:15;24.00;99.90
13798;DHT22;6970;51.340;3.240;2023-08-17T14:38:45;24.00;99.90
13798;DHT22;6970;51.340;3.240;2023-08-17T14:41:12;24.00;99.90
13798;DHT22;6970;51.340;3.240;2023-08-17T14:43:42;24.00;99.90
13798;DHT22;6970;51.340;3.240;2023-08-17T14:46:11;24.00;99.90
13798;DHT22;6970;51.340;3.240;2023-08-17T14:48:42;24.00;99.90
13798;DHT22;6970;51.340;3.240;2023-08-17T14:51:10;23.90;99.90
13798;DHT22;6970;51.340;3.240;2023-08-17T14:53:40;24.00;99.90
13798;DHT22;6970;51.340;3.240;2023-08-17T14:56:09;23.90;99.90
13798;DHT22;6970;51.340;3.240;2023-08-17T14:58:39;23.90;99.90
13798;DHT22;6970;51.340;3.240;2023-08-17T15:01:06;23.90;99.90
13798;DHT22;6970;51.340;3.240;2023-08-17T15:03:34;23.90;99.90
13798;DHT22;6970;51.340;3.240;2023-08-17T15:06:03;23.90;99.90
13798;DHT22;6970;51.340;3.240;2023-08-17T15:08:33;24.00;99.90
13798;DHT22;6970;51.340;3.240;2023-08-17T15:11:03;24.00;99.90
13798;DHT22;6970;51.340;3.240;2023-08-17T15:13:30;24.00;99.90
13798;DHT22;6970;51.340;3.240;2023-08-17T15:15:59;24.00;99.90
13798;DHT22;6970;51.340;3.240;2023-08-17T15:18:29;24.00;99.90
13798;DHT22;6970;51.340;3.240;2023-08-17T15:20:56;24.10;99.90
13798;DHT22;6970;51.340;3.240;2023-08-17T15:23:24;24.10;99.90
13798;DHT22;6970;51.340;3.240;2023-08-17T15:25:54;24.10;99.90
13798;DHT22;6970;51.340;3.240;2023-08-17T15:28:21;24.20;99.90
13798;DHT22;6970;51.340;3.240;2023-08-17T15:31:00;24.10;99.90
13798;DHT22;6970;51.340;3.240;2023-08-17T15:33:35;24.10;99.90
13798;DHT22;6970;51.340;3.240;2023-08-17T15:36:03;24.20;99.90
13798;DHT22;6970;51.340;3.240;2023-08-17T15:38:30;24.20;99.90
13798;DHT22;6970;51.340;3.240;2023-08-17T15:40:58;24.20;99.90
13798;DHT22;6970;51.340;3.240;2023-08-17T15:43:28;24.20;99.90
13798;DHT22;6970;51.340;3.240;2023-08-17T15:45:58;24.20;99.90
13798;DHT22;6970;51.340;3.240;2023-08-17T15:48:28;24.10;99.90
13798;DHT22;6970;51.340;3.240;2023-08-17T15:51:00;24.00;99.90
13798;DHT22;6970;51.340;3.240;2023-08-17T15:53:30;24.00;99.90
13798;DHT22;6970;51.340;3.240;2023-08-17T15:55:57;24.00;99.90
13798;DHT22;6970;51.340;3.240;2023-08-17T15:58:27;23.90;99.90
13798;DHT22;6970;51.340;3.240;2023-08-17T16:00:55;23.90;99.90
13798;DHT22;6970;51.340;3.240;2023-08-17T16:03:24;24.00;99.90
13798;DHT22;6970;51.340;3.240;2023-08-17T16:05:51;24.00;99.90
13798;DHT22;6970;51.340;3.240;2023-08-17T16:08:22;24.00;99.90
13798;DHT22;6970;51.340;3.240;2023-08-17T16:11:05;24.00;99.90